Time;durP1;ratioP1;P1;durP2;ratioP2;P2;SDS_P1;SDS_P2;PMS_P1;PMS_P2;Temp;Humidity;BMP_temperature;BMP_pressure;BME280_temperature;BME280_humidity;BME280_pressure;Samples;Min_cycle;Max_cycle;Signal;HPM_P1;HPM_P2
2021/12/23 00:00:41;;;;;;;147.30;66.70;;;;;;;-2.40;62.93;99943.63;218182;1297;139912;-60
2021/12/23 00:05:44;;;;;;;140.50;64.60;;;;;;;-2.45;62.77;99933.70;217942;1298;139592;-59
2021/12/23 00:10:48;;;;;;;159.90;70.30;;;;;;;-2.44;62.94;99937.00;217952;1297;139649;-59
2021/12/23 00:26:19;;;;;;;150.20;68.20;;;;;;;-2.53;62.66;99917.33;219597;1297;140113;-60
2021/12/23 00:31:22;;;;;;;146.90;68.50;;;;;;;-2.58;62.82;99910.88;217583;1297;138991;-59
2021/12/23 00:36:25;;;;;;;146.50;68.10;;;;;;;-2.61;62.83;99906.52;217715;1296;139135;-58
2021/12/23 00:41:31;;;;;;;149.80;69.90;;;;;;;-2.65;62.85;99899.55;217774;1299;139057;-58
2021/12/23 00:46:34;;;;;;;152.40;69.40;;;;;;;-2.70;62.92;99900.92;217611;1299;139573;-57
2021/12/23 00:51:37;;;;;;;168.90;68.10;;;;;;;-2.71;63.16;99894.65;217463;1297;139405;-57
2021/12/23 00:56:40;;;;;;;166.30;69.00;;;;;;;-2.66;63.22;99890.70;217587;1299;140216;-58
2021/12/23 01:01:44;;;;;;;160.80;70.70;;;;;;;-2.58;63.23;99884.99;217963;1299;140294;-58
2021/12/23 01:06:48;;;;;;;160.50;73.70;;;;;;;-2.51;63.38;99879.48;217784;1298;139116;-60
2021/12/23 01:11:51;;;;;;;148.30;68.40;;;;;;;-2.48;63.27;99878.27;217568;1298;139295;-59
2021/12/23 01:22:00;;;;;;;161.80;71.00;;;;;;;-2.50;63.06;99877.91;218404;1297;139602;-56
2021/12/23 01:27:04;;;;;;;153.80;68.60;;;;;;;-2.55;63.02;99875.11;218343;1296;140444;-59
2021/12/23 01:32:08;;;;;;;159.10;69.90;;;;;;;-2.55;63.13;99863.48;218015;1299;139520;-61
2021/12/23 01:37:11;;;;;;;149.90;69.00;;;;;;;-2.55;63.12;99870.77;217748;1299;139192;-59
2021/12/23 01:42:14;;;;;;;155.90;71.80;;;;;;;-2.62;62.94;99864.66;219143;1297;141060;-58
2021/12/23 01:47:17;;;;;;;146.40;66.50;;;;;;;-2.65;63.04;99856.13;218022;1297;139759;-58
2021/12/23 01:52:20;;;;;;;143.00;67.30;;;;;;;-2.72;63.01;99846.20;218249;1297;139248;-56
2021/12/23 01:57:26;;;;;;;144.20;67.20;;;;;;;-2.79;62.93;99840.98;218221;1296;139571;-55
2021/12/23 02:02:30;;;;;;;140.20;66.30;;;;;;;-2.85;63.09;99841.45;217666;1297;141917;-61
2021/12/23 02:07:34;;;;;;;149.00;64.90;;;;;;;-2.91;63.13;99839.16;218227;1298;140292;-59
2021/12/23 02:12:42;;;;;;;145.40;66.60;;;;;;;-2.97;63.07;99829.94;218012;1298;139896;-58
2021/12/23 02:17:47;;;;;;;141.40;65.60;;;;;;;-3.02;63.17;99828.70;217746;1297;139740;-60
2021/12/23 02:22:51;;;;;;;146.80;64.00;;;;;;;-3.08;63.20;99818.59;217959;1297;139484;-59
2021/12/23 02:27:55;;;;;;;143.60;66.50;;;;;;;-3.13;63.22;99814.92;217613;1297;139543;-58
2021/12/23 02:32:58;;;;;;;147.50;64.90;;;;;;;-3.21;63.15;99804.48;218146;1296;140410;-59
2021/12/23 02:38:02;;;;;;;149.10;66.60;;;;;;;-3.28;63.17;99797.48;217997;1299;139783;-58
2021/12/23 02:43:13;;;;;;;148.00;66.80;;;;;;;-3.33;63.23;99791.21;218774;1297;139161;-53
2021/12/23 02:48:19;;;;;;;144.60;62.70;;;;;;;-3.41;63.14;99780.23;218350;1297;139447;-58
2021/12/23 02:53:23;;;;;;;142.20;63.90;;;;;;;-3.47;63.15;99775.69;218201;1296;140277;-57
2021/12/23 02:58:26;;;;;;;151.80;66.40;;;;;;;-3.53;63.19;99772.17;217544;1301;140398;-60
2021/12/23 03:03:29;;;;;;;142.80;63.00;;;;;;;-3.61;63.23;99769.00;217827;1297;140663;-56
2021/12/23 03:08:36;;;;;;;139.70;63.70;;;;;;;-3.68;63.30;99764.11;218748;1297;140002;-57
2021/12/23 03:13:40;;;;;;;133.30;60.20;;;;;;;-3.75;63.37;99757.98;217400;1300;138907;-58
2021/12/23 03:18:43;;;;;;;154.30;64.10;;;;;;;-3.76;63.43;99756.95;217903;1299;139291;-61
2021/12/23 03:23:46;;;;;;;141.20;61.30;;;;;;;-3.75;63.41;99756.94;218164;1297;139453;-60
2021/12/23 03:28:49;;;;;;;141.10;64.20;;;;;;;-3.71;63.54;99752.81;217813;1297;139645;-58
2021/12/23 03:33:52;;;;;;;134.50;62.70;;;;;;;-3.66;63.57;99745.39;217777;1299;139787;-58
2021/12/23 03:38:55;;;;;;;148.90;66.40;;;;;;;-3.65;63.56;99738.63;217642;1297;139177;-58
2021/12/23 03:43:58;;;;;;;137.00;63.60;;;;;;;-3.67;63.46;99733.60;217386;1300;139622;-56
2021/12/23 03:49:01;;;;;;;137.30;64.10;;;;;;;-3.70;63.44;99727.85;217755;1298;140174;-55
2021/12/23 03:54:05;;;;;;;144.40;62.60;;;;;;;-3.73;63.47;99720.39;218388;1297;139969;-58
2021/12/23 03:59:08;;;;;;;144.50;65.90;;;;;;;-3.74;63.60;99717.42;219320;1297;139837;-59
2021/12/23 04:04:12;;;;;;;141.80;63.80;;;;;;;-3.78;63.41;99715.66;218308;1299;139815;-58
2021/12/23 04:09:15;;;;;;;139.20;65.20;;;;;;;-3.85;63.44;99708.35;218054;1299;141152;-59
2021/12/23 04:14:19;;;;;;;173.50;79.60;;;;;;;-3.89;63.62;99698.45;218241;1298;139278;-58
2021/12/23 04:19:28;;;;;;;152.40;67.80;;;;;;;-3.72;64.30;99690.23;218065;1299;140001;-61
2021/12/23 04:24:31;;;;;;;145.20;67.20;;;;;;;-3.74;63.60;99680.67;217916;1299;139482;-58
2021/12/23 04:29:34;;;;;;;149.30;67.70;;;;;;;-3.82;63.45;99687.03;217797;1299;139454;-58
2021/12/23 04:34:37;;;;;;;148.40;65.80;;;;;;;-3.87;63.59;99683.71;217576;1297;140081;-59
2021/12/23 04:39:40;;;;;;;137.50;60.10;;;;;;;-3.91;63.53;99683.17;218552;1297;139012;-58
2021/12/23 04:44:43;;;;;;;130.00;61.50;;;;;;;-3.92;63.63;99684.89;218887;1297;140207;-58
2021/12/23 04:49:46;;;;;;;132.60;60.30;;;;;;;-3.86;64.06;99679.73;217959;1297;140400;-58
2021/12/23 04:54:49;;;;;;;131.10;61.80;;;;;;;-3.83;63.65;99670.40;218296;1298;140726;-61
2021/12/23 04:59:52;;;;;;;129.00;60.60;;;;;;;-3.93;63.46;99666.52;218057;1297;139217;-59
2021/12/23 05:04:55;;;;;;;136.30;61.30;;;;;;;-4.01;63.40;99658.49;218339;1297;140015;-60
2021/12/23 05:09:58;;;;;;;129.30;59.70;;;;;;;-4.10;63.29;99647.17;217352;1300;139658;-62
2021/12/23 05:15:02;;;;;;;120.70;57.00;;;;;;;-4.14;63.47;99634.85;218305;1296;139444;-59
2021/12/23 05:20:07;;;;;;;126.00;56.70;;;;;;;-4.18;63.40;99634.30;218719;1297;140729;-57
2021/12/23 05:25:11;;;;;;;123.20;56.90;;;;;;;-4.21;63.37;99627.70;217942;1297;139381;-58
2021/12/23 05:30:16;;;;;;;118.70;55.80;;;;;;;-4.26;63.30;99617.79;218917;1298;139320;-59
2021/12/23 05:35:19;;;;;;;122.00;58.10;;;;;;;-4.32;63.28;99618.79;218210;1295;140031;-58
2021/12/23 05:40:24;;;;;;;115.90;54.90;;;;;;;-4.40;63.16;99617.68;218685;1296;160894;-62
2021/12/23 05:45:28;;;;;;;131.80;57.40;;;;;;;-4.48;63.25;99617.11;218271;1297;139940;-57
2021/12/23 05:50:30;;;;;;;131.40;59.00;;;;;;;-4.50;63.35;99611.73;217635;1299;139800;-59
2021/12/23 05:55:34;;;;;;;130.10;60.00;;;;;;;-4.48;63.23;99608.27;217555;1299;140324;-58
2021/12/23 06:00:38;;;;;;;130.80;58.80;;;;;;;-4.48;63.27;99604.80;218432;1298;139712;-58
2021/12/23 06:05:42;;;;;;;122.20;57.10;;;;;;;-4.46;63.46;99595.65;217603;1298;139361;-59
2021/12/23 06:10:45;;;;;;;134.10;59.10;;;;;;;-4.43;63.44;99589.45;217807;1297;139299;-59
2021/12/23 06:15:48;;;;;;;118.30;56.40;;;;;;;-4.45;63.28;99586.66;217555;1299;139653;-61
2021/12/23 06:20:51;;;;;;;139.90;60.40;;;;;;;-4.47;63.28;99591.48;217888;1297;139167;-59
2021/12/23 06:25:54;;;;;;;133.90;59.80;;;;;;;-4.52;63.13;99593.36;217610;1299;139223;-57
2021/12/23 06:30:57;;;;;;;123.90;56.10;;;;;;;-4.57;63.17;99588.64;218372;1297;139563;-59
2021/12/23 06:36:01;;;;;;;133.10;59.10;;;;;;;-4.62;63.15;99587.75;218096;1299;139311;-61
2021/12/23 06:41:04;;;;;;;131.40;60.10;;;;;;;-4.63;63.32;99584.27;217806;1298;139650;-61
2021/12/23 06:46:08;;;;;;;135.10;59.00;;;;;;;-4.63;63.34;99584.27;217943;1297;139674;-61
2021/12/23 06:51:11;;;;;;;126.20;57.20;;;;;;;-4.61;63.39;99584.46;217725;1299;140433;-60
2021/12/23 06:56:17;;;;;;;127.60;58.10;;;;;;;-4.63;63.60;99582.71;217870;1299;140004;-61
2021/12/23 07:01:21;;;;;;;128.00;58.10;;;;;;;-4.64;63.67;99576.30;217690;1297;139045;-61
2021/12/23 07:06:26;;;;;;;122.70;57.10;;;;;;;-4.63;63.66;99575.61;218510;1297;139800;-61
2021/12/23 07:11:29;;;;;;;117.10;56.70;;;;;;;-4.54;63.85;99555.60;217576;1298;139683;-60
2021/12/23 07:16:33;;;;;;;122.20;56.80;;;;;;;-4.40;64.04;99547.21;217879;1297;139286;-58
2021/12/23 07:21:36;;;;;;;134.20;55.70;;;;;;;-4.24;63.96;99542.10;217617;1299;140012;-61
2021/12/23 07:26:39;;;;;;;132.50;58.50;;;;;;;-4.18;63.59;99538.34;218129;1295;139610;-59
2021/12/23 07:31:43;;;;;;;121.30;57.70;;;;;;;-4.20;63.40;99531.58;218844;1294;140372;-60
2021/12/23 07:36:46;;;;;;;126.40;58.60;;;;;;;-4.25;63.18;99529.46;217850;1296;170953;-59
2021/12/23 07:41:50;;;;;;;119.70;56.90;;;;;;;-4.31;63.25;99528.56;218233;1298;139804;-63
2021/12/23 07:47:14;;;;;;;127.50;57.40;;;;;;;-4.31;63.43;99523.88;218600;1297;139350;-63
2021/12/23 07:52:17;;;;;;;128.10;58.10;;;;;;;-4.18;63.71;99510.61;217963;1296;139751;-61
2021/12/23 07:57:20;;;;;;;136.80;61.20;;;;;;;-4.06;63.82;99514.48;218156;1297;139707;-59
2021/12/23 08:02:24;;;;;;;131.50;59.30;;;;;;;-3.97;63.75;99510.70;218191;1297;139073;-63
2021/12/23 08:07:27;;;;;;;142.80;62.90;;;;;;;-3.89;63.70;99507.79;218723;1297;140009;-59
2021/12/23 08:12:30;;;;;;;145.00;62.20;;;;;;;-3.76;63.84;99503.84;218302;1297;139093;-60
2021/12/23 08:17:33;;;;;;;147.00;67.60;;;;;;;-3.52;64.07;99494.72;217698;1297;142488;-62
2021/12/23 08:22:37;;;;;;;134.20;63.70;;;;;;;-3.36;63.94;99493.53;218459;1297;139108;-59
2021/12/23 08:27:42;;;;;;;141.50;64.50;;;;;;;-3.17;63.93;99487.29;218703;1297;139274;-58
2021/12/23 08:32:46;;;;;;;144.10;62.70;;;;;;;-3.00;63.87;99474.63;218182;1297;139339;-60
2021/12/23 08:37:51;;;;;;;141.40;63.70;;;;;;;-2.84;63.95;99466.98;217885;1296;138437;-59
2021/12/23 08:42:56;;;;;;;136.90;63.20;;;;;;;-2.69;63.89;99462.77;217597;1298;139216;-59
2021/12/23 08:47:59;;;;;;;138.10;62.80;;;;;;;-2.52;63.86;99459.45;218236;1297;139145;-59
2021/12/23 08:53:03;;;;;;;139.10;64.80;;;;;;;-2.35;63.84;99454.88;218053;1297;139461;-60
2021/12/23 08:58:06;;;;;;;140.20;63.40;;;;;;;-2.23;63.60;99440.41;217753;1299;139419;-60
2021/12/23 09:03:10;;;;;;;207.10;98.60;;;;;;;-1.99;64.64;99435.96;218747;1296;140504;-61
2021/12/23 09:08:13;;;;;;;130.50;61.10;;;;;;;-1.78;63.99;99430.79;218426;1297;139579;-58
2021/12/23 09:13:16;;;;;;;127.00;60.50;;;;;;;-1.75;63.42;99422.60;218040;1297;139389;-61
2021/12/23 09:18:20;;;;;;;136.30;63.50;;;;;;;-1.72;63.32;99413.54;218351;1297;139696;-62
2021/12/23 09:23:24;;;;;;;131.00;60.70;;;;;;;-1.67;63.14;99408.82;217619;1299;139467;-60
2021/12/23 09:33:33;;;;;;;87.40;43.80;;;;;;;-1.52;63.12;99390.98;217843;1297;139507;-59
2021/12/23 09:38:36;;;;;;;77.70;37.00;;;;;;;-1.43;62.93;99376.45;218373;1297;139153;-62
2021/12/23 09:43:41;;;;;;;74.50;37.50;;;;;;;-1.41;62.57;99371.04;218113;1296;139349;-60
2021/12/23 09:48:46;;;;;;;96.30;41.20;;;;;;;-1.38;62.49;99363.89;217685;1296;138990;-59
2021/12/23 09:53:57;;;;;;;84.90;40.60;;;;;;;-1.35;62.44;99352.37;217532;1297;139332;-59
2021/12/23 09:59:06;;;;;;;84.70;41.40;;;;;;;-1.22;62.51;99343.89;218216;1297;139582;-62
2021/12/23 10:04:10;;;;;;;75.50;39.10;;;;;;;-1.05;62.52;99339.73;218599;1297;139254;-59
2021/12/23 10:09:24;;;;;;;85.10;41.10;;;;;;;-0.82;62.93;99328.84;218051;1297;140571;-59
2021/12/23 10:30:55;;;;;;;61.80;31.80;;;;;;;-0.25;61.60;99270.26;218699;1297;139020;-65
2021/12/23 10:41:20;;;;;;;59.80;30.10;;;;;;;-0.12;61.23;99236.05;217764;1298;139420;-59
2021/12/23 10:46:29;;;;;;;52.90;26.70;;;;;;;-0.04;61.02;99224.94;218028;1297;139266;-64
2021/12/23 11:03:15;;;;;;;49.60;23.90;;;;;;;0.16;60.52;99186.74;218302;1298;138353;-64
2021/12/23 11:45:48;;;;;;;30.40;16.00;;;;;;;0.75;59.18;99073.21;218269;1297;138997;-66
2021/12/23 11:56:00;;;;;;;32.20;16.20;;;;;;;0.70;58.91;99062.12;217323;1297;139580;-64
2021/12/23 12:01:10;;;;;;;37.60;18.40;;;;;;;0.72;59.05;99050.20;217895;1296;139897;-58
2021/12/23 12:06:16;;;;;;;39.20;19.70;;;;;;;0.83;59.31;99034.23;218747;1296;141803;-61
2021/12/23 12:11:25;;;;;;;36.50;19.00;;;;;;;0.94;59.40;99011.13;218132;1297;139220;-61
2021/12/23 12:16:29;;;;;;;39.70;19.60;;;;;;;1.01;59.33;99002.40;217472;1297;139158;-60
2021/12/23 12:21:35;;;;;;;407.60;216.20;;;;;;;1.06;59.45;99000.01;217772;1297;139123;-60
2021/12/23 12:27:01;;;;;;;52.10;25.00;;;;;;;1.21;59.68;99002.42;218175;1297;140302;-59
2021/12/23 12:32:05;;;;;;;63.50;32.20;;;;;;;1.23;59.27;98984.04;217887;1299;138968;-61
2021/12/23 12:37:08;;;;;;;63.90;32.10;;;;;;;1.23;59.48;98957.66;218058;1297;139185;-59
2021/12/23 12:42:29;;;;;;;50.00;26.40;;;;;;;1.26;59.54;98928.75;218579;1297;139864;-57
2021/12/23 12:47:37;;;;;;;35.80;18.90;;;;;;;1.30;59.45;98921.11;217286;1299;138938;-58
2021/12/23 12:52:46;;;;;;;48.20;24.00;;;;;;;1.33;59.13;98927.51;217899;1297;139269;-59
2021/12/23 12:57:51;;;;;;;53.80;27.30;;;;;;;1.31;59.12;98913.04;217531;1299;138915;-59
2021/12/23 13:03:01;;;;;;;53.60;27.60;;;;;;;1.32;59.33;98906.73;217736;1300;139003;-60
2021/12/23 13:08:25;;;;;;;53.10;26.30;;;;;;;1.36;59.39;98899.28;217845;1296;139382;-61
2021/12/23 13:14:00;;;;;;;50.40;24.60;;;;;;;1.36;59.21;98889.66;218165;1294;142495;-60
2021/12/23 13:19:32;;;;;;;49.10;24.60;;;;;;;1.36;59.26;98870.46;217614;1299;138859;-60
2021/12/23 13:24:35;;;;;;;50.90;24.70;;;;;;;1.38;59.14;98869.16;217813;1297;139819;-60
2021/12/23 13:29:41;;;;;;;49.90;23.60;;;;;;;1.39;59.21;98868.96;217830;1297;139179;-59
2021/12/23 13:34:44;;;;;;;51.30;24.50;;;;;;;1.41;59.27;98866.11;217488;1297;138531;-60
2021/12/23 13:39:48;;;;;;;43.00;23.30;;;;;;;1.42;59.46;98863.27;217297;1299;139192;-60
2021/12/23 13:44:54;;;;;;;44.10;23.80;;;;;;;1.40;59.30;98858.11;218179;1297;140013;-60
2021/12/23 13:49:59;;;;;;;43.80;23.10;;;;;;;1.37;59.26;98847.88;217409;1298;139783;-59
2021/12/23 13:55:09;;;;;;;40.90;21.30;;;;;;;1.37;59.44;98829.54;218227;1297;138889;-59
2021/12/23 14:00:18;;;;;;;38.40;21.80;;;;;;;1.39;59.43;98815.84;218555;1296;139104;-57
2021/12/23 14:05:23;;;;;;;47.70;22.30;;;;;;;1.42;59.50;98793.73;217931;1296;138944;-58
2021/12/23 14:10:28;;;;;;;38.60;20.30;;;;;;;1.41;59.45;98778.53;217676;1296;138792;-59
2021/12/23 14:15:33;;;;;;;42.30;21.80;;;;;;;1.39;59.41;98772.84;217860;1296;139488;-61
2021/12/23 14:26:06;;;;;;;39.40;19.40;;;;;;;1.34;59.40;98762.66;217955;1296;139646;-63
2021/12/23 14:31:11;;;;;;;33.30;18.40;;;;;;;1.34;59.45;98754.81;218013;1297;140039;-55
2021/12/23 14:36:20;;;;;;;35.20;17.80;;;;;;;1.35;59.37;98750.76;218450;1297;138877;-54
2021/12/23 14:41:24;;;;;;;28.70;15.50;;;;;;;1.39;59.29;98731.59;218368;1296;138864;-64
2021/12/23 14:46:27;;;;;;;27.40;14.40;;;;;;;1.47;59.27;98727.87;218071;1296;138577;-60
2021/12/23 14:51:33;;;;;;;25.80;14.40;;;;;;;1.50;58.97;98718.65;218229;1297;139031;-61
2021/12/23 14:56:38;;;;;;;23.50;13.20;;;;;;;1.53;59.03;98705.48;218255;1296;138777;-62
2021/12/23 15:01:44;;;;;;;26.30;13.90;;;;;;;1.55;58.79;98702.42;217590;1300;139181;-58
2021/12/23 15:07:06;;;;;;;24.10;13.50;;;;;;;1.57;58.68;98700.11;218274;1297;139175;-60
2021/12/23 15:12:17;;;;;;;30.30;12.90;;;;;;;1.56;58.62;98702.57;218479;1297;138840;-61
2021/12/23 15:17:30;;;;;;;27.10;13.50;;;;;;;1.53;58.53;98686.23;218704;1295;139002;-61
2021/12/23 15:22:36;;;;;;;26.70;13.90;;;;;;;1.54;58.49;98686.23;218155;1296;138572;-62
2021/12/23 15:27:42;;;;;;;25.20;13.90;;;;;;;1.55;58.45;98685.14;217642;1297;138862;-58
2021/12/23 15:32:46;;;;;;;23.70;12.70;;;;;;;1.53;58.39;98674.70;218074;1293;152169;-59
2021/12/23 15:37:56;;;;;;;21.80;12.60;;;;;;;1.50;58.40;98659.41;217309;1300;138884;-58
2021/12/23 15:43:03;;;;;;;25.30;12.70;;;;;;;1.52;58.50;98642.21;217915;1296;139716;-62
2021/12/23 15:48:10;;;;;;;21.30;12.50;;;;;;;1.50;58.37;98632.32;217374;1299;138814;-60
2021/12/23 15:53:14;;;;;;;24.30;12.40;;;;;;;1.50;58.37;98626.55;218091;1293;139296;-60
2021/12/23 15:58:18;;;;;;;23.50;12.50;;;;;;;1.49;58.21;98615.39;218663;1296;140079;-59
2021/12/23 16:03:24;;;;;;;28.40;14.00;;;;;;;1.47;58.19;98606.55;218387;1296;139949;-62
2021/12/23 16:08:27;;;;;;;;;;;;;;;1.49;58.36;98587.79;218070;1296;139300;-61
2021/12/23 16:13:30;;;;;;;28.50;14.00;;;;;;;1.51;58.45;98572.50;217772;1299;125160;-58
2021/12/23 16:18:33;;;;;;;27.50;14.90;;;;;;;1.59;58.66;98559.13;217623;1299;138552;-65
2021/12/23 16:23:36;;;;;;;23.60;12.60;;;;;;;1.67;58.54;98553.27;217883;1299;139159;-65
2021/12/23 16:28:40;;;;;;;70.50;42.60;;;;;;;1.72;58.92;98541.73;217894;1297;138901;-62
2021/12/23 16:33:43;;;;;;;27.50;15.30;;;;;;;2.47;63.31;98529.92;218009;1298;138739;-60
2021/12/23 16:38:52;;;;;;;23.60;13.40;;;;;;;2.76;59.99;98518.33;218027;1297;207365;-59
2021/12/23 16:43:56;;;;;;;24.20;12.50;;;;;;;2.53;58.52;98514.13;217605;1297;139013;-61
2021/12/23 16:48:59;;;;;;;21.60;12.60;;;;;;;2.22;57.98;98513.73;217533;1300;138943;-60
2021/12/23 16:54:02;;;;;;;26.80;14.00;;;;;;;2.00;57.97;98504.54;218120;1296;139152;-59
2021/12/23 16:59:05;;;;;;;23.50;12.90;;;;;;;1.87;57.99;98508.17;218169;1297;138928;-61
2021/12/23 17:04:08;;;;;;;26.10;13.00;;;;;;;1.76;58.03;98501.71;218169;1296;139395;-60
2021/12/23 17:09:12;;;;;;;25.60;13.80;;;;;;;1.70;57.96;98481.67;218143;1297;139018;-57
2021/12/23 17:14:15;;;;;;;24.30;14.30;;;;;;;1.64;57.97;98465.77;217996;1297;139755;-59
2021/12/23 17:19:20;;;;;;;28.70;13.90;;;;;;;1.56;57.92;98461.50;217368;1305;140655;-63
2021/12/23 17:24:27;;;;;;;25.90;13.80;;;;;;;1.50;57.97;98457.54;217776;1299;139041;-58
2021/12/23 17:29:32;;;;;;;27.80;14.60;;;;;;;1.48;58.00;98449.92;217870;1297;139300;-61
2021/12/23 17:34:35;;;;;;;27.20;14.60;;;;;;;1.50;58.10;98446.88;218312;1297;139350;-64
2021/12/23 17:39:39;;;;;;;25.70;14.50;;;;;;;1.49;58.12;98433.27;217800;1297;139073;-58
2021/12/23 17:44:43;;;;;;;41.40;25.10;;;;;;;1.60;58.79;98411.53;217675;1298;138832;-58
2021/12/23 17:49:46;;;;;;;29.70;16.10;;;;;;;1.82;58.69;98389.05;218017;1296;139123;-60
2021/12/23 17:54:54;;;;;;;28.40;14.70;;;;;;;1.81;58.19;98374.40;218215;1294;138311;-64
2021/12/23 17:59:57;;;;;;;28.10;15.00;;;;;;;1.77;57.92;98378.57;217511;1298;139046;-61
2021/12/23 18:05:01;;;;;;;117.00;70.60;;;;;;;1.71;58.07;98370.07;218220;1296;140002;-58
2021/12/23 18:10:05;;;;;;;34.00;18.80;;;;;;;1.88;58.90;98347.91;218945;1296;139309;-60
2021/12/23 18:15:09;;;;;;;29.80;17.00;;;;;;;1.95;58.15;98323.14;218608;1297;139650;-59
2021/12/23 18:20:12;;;;;;;31.80;17.30;;;;;;;1.91;58.06;98312.99;218463;1296;140168;-59
2021/12/23 18:25:15;;;;;;;31.30;16.80;;;;;;;1.88;57.84;98312.75;217849;1297;138930;-61
2021/12/23 18:30:19;;;;;;;126.50;79.20;;;;;;;1.88;58.49;98310.14;217733;1297;141216;-61
2021/12/23 18:35:28;;;;;;;38.80;21.50;;;;;;;2.24;59.77;98315.21;218772;1297;139323;-63
2021/12/23 18:40:36;;;;;;;31.40;17.90;;;;;;;2.32;58.39;98320.29;218219;1295;139023;-62
2021/12/23 18:45:58;;;;;;;30.30;17.30;;;;;;;2.25;58.07;98336.88;217679;1296;138761;-58
2021/12/23 18:51:01;;;;;;;31.40;17.90;;;;;;;2.14;57.98;98338.69;218167;1295;139494;-59
2021/12/23 18:56:12;;;;;;;32.70;18.00;;;;;;;2.04;57.83;98352.38;218446;1296;138727;-59
2021/12/23 19:01:19;;;;;;;30.10;17.50;;;;;;;1.98;58.09;98355.42;218794;1296;139403;-60
2021/12/23 19:06:23;;;;;;;35.80;18.90;;;;;;;1.92;58.14;98345.13;217917;1297;139058;-58
2021/12/23 19:11:30;;;;;;;35.60;19.10;;;;;;;1.87;58.19;98338.49;217947;1299;139247;-60
2021/12/23 19:16:35;;;;;;;91.50;63.90;;;;;;;1.87;58.23;98326.96;217972;1296;139215;-60
2021/12/23 19:21:41;;;;;;;45.00;25.40;;;;;;;2.20;60.35;98316.39;218018;1297;138899;-60
2021/12/23 19:26:44;;;;;;;;;;;;;;;2.47;59.25;98321.09;218230;1296;139021;-60
2021/12/23 19:31:47;;;;;;;32.30;18.40;;;;;;;2.36;58.27;98324.16;218059;1296;125551;-61
2021/12/23 19:36:51;;;;;;;40.00;19.70;;;;;;;2.24;58.20;98306.27;217682;1297;139819;-56
2021/12/23 19:41:54;;;;;;;34.60;18.70;;;;;;;2.14;58.33;98289.02;217414;1298;140356;-59
2021/12/23 19:46:57;;;;;;;32.80;18.20;;;;;;;2.06;58.18;98281.08;217824;1299;138716;-58
2021/12/23 19:52:02;;;;;;;36.20;18.70;;;;;;;2.05;58.12;98264.16;217922;1297;139051;-62
2021/12/23 19:57:06;;;;;;;35.80;19.20;;;;;;;2.04;58.10;98265.06;218662;1297;138944;-58
2021/12/23 20:02:09;;;;;;;34.10;18.60;;;;;;;2.02;57.90;98267.94;218534;1295;139009;-59
2021/12/23 20:07:13;;;;;;;35.20;18.70;;;;;;;1.99;57.89;98275.41;218431;1297;138406;-57
2021/12/23 20:12:16;;;;;;;40.90;18.20;;;;;;;1.94;57.91;98260.23;217627;1298;138911;-58
2021/12/23 20:17:19;;;;;;;36.60;18.50;;;;;;;1.86;57.82;98260.38;218416;1298;139081;-56
2021/12/23 20:22:22;;;;;;;33.30;18.50;;;;;;;1.87;58.08;98246.88;218078;1298;138691;-56
2021/12/23 20:27:26;;;;;;;33.90;18.40;;;;;;;1.90;57.96;98218.25;218281;1297;139433;-60
2021/12/23 20:32:29;;;;;;;32.30;19.00;;;;;;;1.95;58.00;98209.66;218417;1296;139959;-63
2021/12/23 20:37:32;;;;;;;38.70;19.80;;;;;;;2.02;57.99;98198.52;218772;1297;139020;-66
2021/12/23 20:42:37;;;;;;;36.70;20.30;;;;;;;2.06;57.93;98185.72;218514;1296;141036;-60
2021/12/23 20:47:40;;;;;;;37.50;19.30;;;;;;;2.05;57.76;98171.95;217751;1297;139530;-62
2021/12/23 20:52:45;;;;;;;38.30;19.40;;;;;;;1.98;57.64;98162.66;218324;1297;139063;-62
2021/12/23 20:57:50;;;;;;;38.90;21.80;;;;;;;1.87;57.52;98155.39;218769;1297;139177;-58
2021/12/23 21:02:53;;;;;;;38.60;21.40;;;;;;;1.74;57.52;98153.64;217374;1297;139205;-61
2021/12/23 21:07:57;;;;;;;39.50;21.60;;;;;;;1.66;57.73;98137.89;218161;1298;139322;-59
2021/12/23 21:13:00;;;;;;;39.20;21.70;;;;;;;1.63;57.86;98124.90;217965;1299;139377;-59
2021/12/23 21:18:04;;;;;;;39.20;21.80;;;;;;;1.64;57.92;98108.62;217516;1299;139488;-60
2021/12/23 21:23:08;;;;;;;42.00;21.50;;;;;;;1.61;57.99;98102.61;218223;1297;139384;-63
2021/12/23 21:28:11;;;;;;;47.00;21.30;;;;;;;1.64;58.25;98087.27;218160;1298;139781;-59
2021/12/23 21:33:17;;;;;;;46.60;21.60;;;;;;;1.70;58.23;98085.12;218602;1296;139530;-60
2021/12/23 21:38:21;;;;;;;41.00;22.60;;;;;;;1.73;58.32;98079.73;217755;1297;139227;-61
2021/12/23 21:43:25;;;;;;;47.00;22.80;;;;;;;1.75;58.66;98066.19;218398;1297;139011;-65
2021/12/23 21:48:30;;;;;;;43.10;21.00;;;;;;;1.76;58.69;98061.98;217869;1297;138838;-60
2021/12/23 21:53:33;;;;;;;41.20;22.10;;;;;;;1.77;58.58;98047.94;219172;1296;138579;-59
2021/12/23 21:58:36;;;;;;;38.90;21.00;;;;;;;1.77;58.55;98039.52;217705;1297;139085;-59
2021/12/23 22:03:39;;;;;;;35.60;18.90;;;;;;;1.73;58.34;98023.98;218237;1296;139446;-60
2021/12/23 22:08:42;;;;;;;39.00;21.10;;;;;;;1.72;58.24;98008.79;218267;1297;139456;-63
2021/12/23 22:13:46;;;;;;;35.40;18.50;;;;;;;1.72;58.48;97997.77;217774;1296;139748;-59
2021/12/23 22:18:50;;;;;;;37.60;19.00;;;;;;;1.73;58.48;97984.48;217905;1297;138234;-58
2021/12/23 22:23:53;;;;;;;35.70;18.00;;;;;;;1.70;58.31;97977.43;218489;1296;138436;-58
2021/12/23 22:28:57;;;;;;;36.90;18.20;;;;;;;1.71;58.45;97960.08;218067;1297;138538;-58
2021/12/23 22:34:00;;;;;;;32.30;17.80;;;;;;;1.70;58.44;97949.63;217801;1296;138617;-58
2021/12/23 22:39:05;;;;;;;31.60;17.90;;;;;;;1.65;58.43;97941.41;219016;1297;138850;-59
2021/12/23 22:44:09;;;;;;;36.60;17.70;;;;;;;1.64;58.43;97921.17;218071;1298;138513;-58
2021/12/23 22:49:12;;;;;;;32.80;16.70;;;;;;;1.68;58.65;97903.91;218216;1296;139965;-58
2021/12/23 22:54:15;;;;;;;32.60;17.50;;;;;;;1.73;58.58;97888.64;218377;1296;138803;-57
2021/12/23 22:59:18;;;;;;;33.90;18.40;;;;;;;1.78;58.77;97873.88;218193;1297;139064;-59
2021/12/23 23:04:21;;;;;;;33.40;18.10;;;;;;;1.84;58.71;97867.15;218738;1297;139123;-60
2021/12/23 23:09:24;;;;;;;36.40;16.80;;;;;;;1.88;58.41;97861.38;218932;1297;140414;-57
2021/12/23 23:19:50;;;;;;;33.60;18.00;;;;;;;1.80;58.79;97850.04;217881;1297;139268;-54
2021/12/23 23:25:04;;;;;;;33.30;17.80;;;;;;;1.81;58.88;97843.85;218241;1297;139026;-54
2021/12/23 23:35:34;;;;;;;36.60;18.00;;;;;;;1.68;59.45;97816.83;218017;1296;234574;-58
2021/12/23 23:40:39;;;;;;;34.20;17.10;;;;;;;1.68;59.83;97809.35;218373;1296;138843;-56
2021/12/23 23:45:50;;;;;;;32.20;16.70;;;;;;;1.70;60.04;97803.46;218570;1296;139130;-57
2021/12/23 23:50:57;;;;;;;30.70;16.70;;;;;;;1.68;60.15;97793.58;217582;1297;139288;-56
2021/12/23 23:56:06;;;;;;;33.80;17.80;;;;;;;1.62;60.26;97791.23;218021;1297;138636;-60
